sensor_id;sensor_type;location;lat;lon;timestamp;P1;durP1;ratioP1;P2;durP2;ratioP2
60026;SDS011;45891;53.006;6.512;2023-09-19T00:01:42;15.15;;;2.45;;
60026;SDS011;45891;53.006;6.512;2023-09-19T00:04:11;12.73;;;2.00;;
60026;SDS011;45891;53.006;6.512;2023-09-19T00:06:38;9.45;;;2.28;;
60026;SDS011;45891;53.006;6.512;2023-09-19T00:09:05;10.30;;;1.73;;
60026;SDS011;45891;53.006;6.512;2023-09-19T00:11:36;14.70;;;2.03;;
60026;SDS011;45891;53.006;6.512;2023-09-19T00:14:04;12.85;;;2.13;;
60026;SDS011;45891;53.006;6.512;2023-09-19T00:16:34;15.68;;;2.53;;
60026;SDS011;45891;53.006;6.512;2023-09-19T00:19:01;14.80;;;2.45;;
60026;SDS011;45891;53.006;6.512;2023-09-19T00:21:28;11.25;;;2.15;;
60026;SDS011;45891;53.006;6.512;2023-09-19T00:23:57;13.38;;;2.33;;
60026;SDS011;45891;53.006;6.512;2023-09-19T00:26:23;14.07;;;2.22;;
60026;SDS011;45891;53.006;6.512;2023-09-19T00:28:52;12.68;;;2.22;;
60026;SDS011;45891;53.006;6.512;2023-09-19T00:31:18;13.35;;;2.10;;
60026;SDS011;45891;53.006;6.512;2023-09-19T00:33:44;14.25;;;2.40;;
60026;SDS011;45891;53.006;6.512;2023-09-19T00:36:10;15.02;;;2.50;;
60026;SDS011;45891;53.006;6.512;2023-09-19T00:38:36;14.23;;;2.42;;
60026;SDS011;45891;53.006;6.512;2023-09-19T00:41:02;13.93;;;2.30;;
60026;SDS011;45891;53.006;6.512;2023-09-19T00:43:28;12.75;;;2.35;;
60026;SDS011;45891;53.006;6.512;2023-09-19T00:45:55;13.98;;;2.38;;
60026;SDS011;45891;53.006;6.512;2023-09-19T00:48:22;11.82;;;1.98;;
60026;SDS011;45891;53.006;6.512;2023-09-19T00:50:50;17.13;;;2.33;;
60026;SDS011;45891;53.006;6.512;2023-09-19T00:53:21;13.75;;;2.42;;
60026;SDS011;45891;53.006;6.512;2023-09-19T00:55:49;17.85;;;2.45;;
60026;SDS011;45891;53.006;6.512;2023-09-19T00:58:17;16.67;;;2.65;;
60026;SDS011;45891;53.006;6.512;2023-09-19T01:00:44;18.42;;;2.45;;
60026;SDS011;45891;53.006;6.512;2023-09-19T01:03:10;18.08;;;2.42;;
60026;SDS011;45891;53.006;6.512;2023-09-19T01:05:38;12.25;;;2.10;;
60026;SDS011;45891;53.006;6.512;2023-09-19T01:08:05;15.98;;;2.50;;
60026;SDS011;45891;53.006;6.512;2023-09-19T01:10:32;18.05;;;2.88;;
60026;SDS011;45891;53.006;6.512;2023-09-19T01:19:02;16.23;;;2.53;;
60026;SDS011;45891;53.006;6.512;2023-09-19T01:22:14;16.52;;;2.53;;
60026;SDS011;45891;53.006;6.512;2023-09-19T01:30:47;16.13;;;3.25;;
60026;SDS011;45891;53.006;6.512;2023-09-19T01:33:19;14.57;;;2.40;;
60026;SDS011;45891;53.006;6.512;2023-09-19T01:35:45;20.42;;;2.65;;
60026;SDS011;45891;53.006;6.512;2023-09-19T01:38:12;16.10;;;2.88;;
60026;SDS011;45891;53.006;6.512;2023-09-19T01:40:43;17.65;;;2.28;;
60026;SDS011;45891;53.006;6.512;2023-09-19T01:43:20;14.25;;;2.38;;
60026;SDS011;45891;53.006;6.512;2023-09-19T01:49:33;13.55;;;2.30;;
60026;SDS011;45891;53.006;6.512;2023-09-19T01:51:51;14.98;;;2.70;;
60026;SDS011;45891;53.006;6.512;2023-09-19T01:54:30;20.38;;;3.08;;
60026;SDS011;45891;53.006;6.512;2023-09-19T01:57:05;16.48;;;2.70;;
60026;SDS011;45891;53.006;6.512;2023-09-19T01:59:54;13.40;;;2.58;;
60026;SDS011;45891;53.006;6.512;2023-09-19T02:02:37;11.35;;;2.08;;
60026;SDS011;45891;53.006;6.512;2023-09-19T02:05:05;12.50;;;2.28;;
60026;SDS011;45891;53.006;6.512;2023-09-19T02:07:31;17.40;;;2.58;;
60026;SDS011;45891;53.006;6.512;2023-09-19T02:09:58;18.17;;;2.50;;
60026;SDS011;45891;53.006;6.512;2023-09-19T02:12:26;16.13;;;2.63;;
60026;SDS011;45891;53.006;6.512;2023-09-19T02:14:53;17.27;;;3.03;;
60026;SDS011;45891;53.006;6.512;2023-09-19T02:17:19;16.63;;;2.58;;
60026;SDS011;45891;53.006;6.512;2023-09-19T02:19:45;16.90;;;2.45;;
60026;SDS011;45891;53.006;6.512;2023-09-19T02:22:11;17.27;;;2.97;;
60026;SDS011;45891;53.006;6.512;2023-09-19T02:24:37;12.32;;;2.88;;
60026;SDS011;45891;53.006;6.512;2023-09-19T02:27:04;11.73;;;2.42;;
60026;SDS011;45891;53.006;6.512;2023-09-19T02:29:30;15.82;;;2.90;;
60026;SDS011;45891;53.006;6.512;2023-09-19T02:31:57;17.55;;;2.38;;
60026;SDS011;45891;53.006;6.512;2023-09-19T02:34:24;18.42;;;3.00;;
60026;SDS011;45891;53.006;6.512;2023-09-19T02:36:51;19.58;;;2.78;;
60026;SDS011;45891;53.006;6.512;2023-09-19T02:39:19;17.90;;;3.10;;
60026;SDS011;45891;53.006;6.512;2023-09-19T02:41:45;14.80;;;3.00;;
60026;SDS011;45891;53.006;6.512;2023-09-19T02:44:11;17.40;;;2.75;;
60026;SDS011;45891;53.006;6.512;2023-09-19T02:46:37;14.20;;;2.42;;
60026;SDS011;45891;53.006;6.512;2023-09-19T02:49:04;17.40;;;3.33;;
60026;SDS011;45891;53.006;6.512;2023-09-19T02:51:33;13.77;;;2.53;;
60026;SDS011;45891;53.006;6.512;2023-09-19T02:54:00;11.43;;;2.35;;
60026;SDS011;45891;53.006;6.512;2023-09-19T02:56:26;22.20;;;2.58;;
60026;SDS011;45891;53.006;6.512;2023-09-19T02:58:52;16.25;;;2.58;;
60026;SDS011;45891;53.006;6.512;2023-09-19T03:01:18;16.55;;;2.72;;
60026;SDS011;45891;53.006;6.512;2023-09-19T03:03:44;15.00;;;2.70;;
60026;SDS011;45891;53.006;6.512;2023-09-19T03:06:11;13.68;;;2.40;;
60026;SDS011;45891;53.006;6.512;2023-09-19T03:08:38;17.58;;;2.72;;
60026;SDS011;45891;53.006;6.512;2023-09-19T03:11:05;14.68;;;2.63;;
60026;SDS011;45891;53.006;6.512;2023-09-19T03:13:33;12.93;;;2.30;;
60026;SDS011;45891;53.006;6.512;2023-09-19T03:15:59;16.42;;;2.88;;
60026;SDS011;45891;53.006;6.512;2023-09-19T03:18:25;13.85;;;2.80;;
60026;SDS011;45891;53.006;6.512;2023-09-19T03:20:53;14.30;;;2.70;;
60026;SDS011;45891;53.006;6.512;2023-09-19T03:23:20;11.65;;;2.58;;
60026;SDS011;45891;53.006;6.512;2023-09-19T03:25:46;14.68;;;2.42;;
60026;SDS011;45891;53.006;6.512;2023-09-19T03:28:13;13.98;;;2.75;;
60026;SDS011;45891;53.006;6.512;2023-09-19T03:30:41;14.82;;;2.47;;
60026;SDS011;45891;53.006;6.512;2023-09-19T03:33:07;12.18;;;2.50;;
60026;SDS011;45891;53.006;6.512;2023-09-19T03:35:33;15.57;;;2.40;;
60026;SDS011;45891;53.006;6.512;2023-09-19T03:38:00;10.95;;;2.40;;
60026;SDS011;45891;53.006;6.512;2023-09-19T03:40:26;15.20;;;2.60;;
60026;SDS011;45891;53.006;6.512;2023-09-19T03:42:52;13.45;;;2.35;;
60026;SDS011;45891;53.006;6.512;2023-09-19T03:45:18;14.90;;;2.70;;
60026;SDS011;45891;53.006;6.512;2023-09-19T03:47:44;9.85;;;2.03;;
60026;SDS011;45891;53.006;6.512;2023-09-19T03:50:13;15.65;;;2.30;;
60026;SDS011;45891;53.006;6.512;2023-09-19T03:52:44;13.57;;;2.13;;
60026;SDS011;45891;53.006;6.512;2023-09-19T03:55:10;13.40;;;2.53;;
60026;SDS011;45891;53.006;6.512;2023-09-19T03:57:36;16.83;;;2.92;;
60026;SDS011;45891;53.006;6.512;2023-09-19T04:00:03;12.57;;;2.20;;
60026;SDS011;45891;53.006;6.512;2023-09-19T04:02:31;16.83;;;2.50;;
60026;SDS011;45891;53.006;6.512;2023-09-19T04:04:58;13.07;;;2.55;;
60026;SDS011;45891;53.006;6.512;2023-09-19T04:07:24;13.55;;;2.45;;
60026;SDS011;45891;53.006;6.512;2023-09-19T04:09:54;12.38;;;2.22;;
60026;SDS011;45891;53.006;6.512;2023-09-19T04:12:20;13.90;;;2.85;;
60026;SDS011;45891;53.006;6.512;2023-09-19T04:14:46;13.40;;;2.65;;
60026;SDS011;45891;53.006;6.512;2023-09-19T04:17:13;15.15;;;2.70;;
60026;SDS011;45891;53.006;6.512;2023-09-19T04:19:39;11.98;;;2.33;;
60026;SDS011;45891;53.006;6.512;2023-09-19T04:22:06;14.88;;;2.53;;
60026;SDS011;45891;53.006;6.512;2023-09-19T04:24:32;12.07;;;2.33;;
60026;SDS011;45891;53.006;6.512;2023-09-19T04:26:59;14.88;;;2.33;;
60026;SDS011;45891;53.006;6.512;2023-09-19T04:29:25;18.17;;;2.70;;
60026;SDS011;45891;53.006;6.512;2023-09-19T04:31:55;17.38;;;2.28;;
60026;SDS011;45891;53.006;6.512;2023-09-19T04:34:24;11.98;;;2.22;;
60026;SDS011;45891;53.006;6.512;2023-09-19T04:36:50;12.15;;;2.53;;
60026;SDS011;45891;53.006;6.512;2023-09-19T04:39:18;12.00;;;2.40;;
60026;SDS011;45891;53.006;6.512;2023-09-19T04:41:44;14.93;;;2.47;;
60026;SDS011;45891;53.006;6.512;2023-09-19T04:44:13;16.38;;;2.83;;
60026;SDS011;45891;53.006;6.512;2023-09-19T04:46:39;10.95;;;2.13;;
60026;SDS011;45891;53.006;6.512;2023-09-19T04:49:06;13.95;;;2.70;;
60026;SDS011;45891;53.006;6.512;2023-09-19T04:51:32;10.88;;;1.98;;
60026;SDS011;45891;53.006;6.512;2023-09-19T04:53:59;16.52;;;2.70;;
60026;SDS011;45891;53.006;6.512;2023-09-19T04:56:26;11.63;;;2.47;;
60026;SDS011;45891;53.006;6.512;2023-09-19T04:58:54;17.88;;;2.78;;
60026;SDS011;45891;53.006;6.512;2023-09-19T05:01:20;15.25;;;2.90;;
60026;SDS011;45891;53.006;6.512;2023-09-19T05:03:48;17.05;;;2.72;;
60026;SDS011;45891;53.006;6.512;2023-09-19T05:06:18;19.73;;;2.67;;
60026;SDS011;45891;53.006;6.512;2023-09-19T05:08:46;14.40;;;2.70;;
60026;SDS011;45891;53.006;6.512;2023-09-19T05:11:19;14.43;;;2.40;;
60026;SDS011;45891;53.006;6.512;2023-09-19T05:13:47;13.63;;;2.80;;
60026;SDS011;45891;53.006;6.512;2023-09-19T05:16:15;14.25;;;2.50;;
60026;SDS011;45891;53.006;6.512;2023-09-19T05:18:42;13.60;;;2.60;;
60026;SDS011;45891;53.006;6.512;2023-09-19T05:21:08;17.58;;;3.15;;
60026;SDS011;45891;53.006;6.512;2023-09-19T05:23:34;12.65;;;2.50;;
60026;SDS011;45891;53.006;6.512;2023-09-19T05:26:00;19.42;;;2.75;;
60026;SDS011;45891;53.006;6.512;2023-09-19T05:28:27;15.55;;;2.80;;
60026;SDS011;45891;53.006;6.512;2023-09-19T05:30:53;15.57;;;2.70;;
60026;SDS011;45891;53.006;6.512;2023-09-19T05:33:19;12.57;;;2.20;;
60026;SDS011;45891;53.006;6.512;2023-09-19T05:35:47;15.70;;;2.90;;
60026;SDS011;45891;53.006;6.512;2023-09-19T05:38:13;17.95;;;2.90;;
60026;SDS011;45891;53.006;6.512;2023-09-19T05:40:41;18.27;;;3.03;;
60026;SDS011;45891;53.006;6.512;2023-09-19T05:43:10;17.83;;;2.72;;
60026;SDS011;45891;53.006;6.512;2023-09-19T05:45:37;16.88;;;2.70;;
60026;SDS011;45891;53.006;6.512;2023-09-19T05:48:13;14.55;;;2.72;;
60026;SDS011;45891;53.006;6.512;2023-09-19T05:50:41;15.00;;;2.17;;
60026;SDS011;45891;53.006;6.512;2023-09-19T05:53:08;18.05;;;2.83;;
60026;SDS011;45891;53.006;6.512;2023-09-19T05:55:37;15.35;;;2.95;;
60026;SDS011;45891;53.006;6.512;2023-09-19T05:58:04;14.80;;;2.55;;
60026;SDS011;45891;53.006;6.512;2023-09-19T06:00:30;17.83;;;2.88;;
60026;SDS011;45891;53.006;6.512;2023-09-19T06:02:57;17.67;;;2.90;;
60026;SDS011;45891;53.006;6.512;2023-09-19T06:05:24;16.55;;;2.70;;
60026;SDS011;45891;53.006;6.512;2023-09-19T06:07:57;17.60;;;2.88;;
60026;SDS011;45891;53.006;6.512;2023-09-19T06:10:27;17.38;;;2.97;;
60026;SDS011;45891;53.006;6.512;2023-09-19T06:12:53;17.00;;;3.03;;
60026;SDS011;45891;53.006;6.512;2023-09-19T06:15:20;17.02;;;2.85;;
60026;SDS011;45891;53.006;6.512;2023-09-19T06:17:51;17.35;;;2.60;;
60026;SDS011;45891;53.006;6.512;2023-09-19T06:20:20;15.02;;;2.95;;
60026;SDS011;45891;53.006;6.512;2023-09-19T06:22:48;16.60;;;3.20;;
60026;SDS011;45891;53.006;6.512;2023-09-19T06:25:15;17.13;;;3.13;;
60026;SDS011;45891;53.006;6.512;2023-09-19T06:27:48;17.27;;;2.83;;
60026;SDS011;45891;53.006;6.512;2023-09-19T06:30:17;16.23;;;2.90;;
60026;SDS011;45891;53.006;6.512;2023-09-19T06:32:43;14.50;;;2.60;;
60026;SDS011;45891;53.006;6.512;2023-09-19T06:35:14;17.75;;;3.00;;
60026;SDS011;45891;53.006;6.512;2023-09-19T06:37:41;14.10;;;3.15;;
60026;SDS011;45891;53.006;6.512;2023-09-19T06:40:12;17.02;;;3.13;;
60026;SDS011;45891;53.006;6.512;2023-09-19T06:42:40;16.25;;;2.50;;
60026;SDS011;45891;53.006;6.512;2023-09-19T06:45:07;19.98;;;2.90;;
60026;SDS011;45891;53.006;6.512;2023-09-19T06:47:34;20.85;;;3.55;;
60026;SDS011;45891;53.006;6.512;2023-09-19T06:50:00;14.18;;;2.95;;
60026;SDS011;45891;53.006;6.512;2023-09-19T06:52:28;15.98;;;2.83;;
60026;SDS011;45891;53.006;6.512;2023-09-19T06:54:54;19.27;;;3.42;;
60026;SDS011;45891;53.006;6.512;2023-09-19T06:57:20;21.13;;;3.08;;
60026;SDS011;45891;53.006;6.512;2023-09-19T06:59:46;13.85;;;2.70;;
60026;SDS011;45891;53.006;6.512;2023-09-19T07:02:12;14.77;;;3.00;;
60026;SDS011;45891;53.006;6.512;2023-09-19T07:04:39;12.60;;;2.55;;
60026;SDS011;45891;53.006;6.512;2023-09-19T07:07:06;16.17;;;3.08;;
60026;SDS011;45891;53.006;6.512;2023-09-19T07:09:34;14.98;;;3.15;;
60026;SDS011;45891;53.006;6.512;2023-09-19T07:12:00;14.93;;;2.53;;
60026;SDS011;45891;53.006;6.512;2023-09-19T07:14:26;16.25;;;3.15;;
60026;SDS011;45891;53.006;6.512;2023-09-19T07:16:53;17.85;;;2.85;;
60026;SDS011;45891;53.006;6.512;2023-09-19T07:19:20;12.40;;;2.60;;
60026;SDS011;45891;53.006;6.512;2023-09-19T07:21:47;18.60;;;2.85;;
60026;SDS011;45891;53.006;6.512;2023-09-19T07:24:15;16.33;;;3.08;;
60026;SDS011;45891;53.006;6.512;2023-09-19T07:26:41;20.48;;;3.08;;
60026;SDS011;45891;53.006;6.512;2023-09-19T07:29:07;19.27;;;3.22;;
60026;SDS011;45891;53.006;6.512;2023-09-19T07:31:34;16.00;;;2.90;;
60026;SDS011;45891;53.006;6.512;2023-09-19T07:34:00;13.80;;;2.83;;
60026;SDS011;45891;53.006;6.512;2023-09-19T07:36:26;18.10;;;2.70;;
60026;SDS011;45891;53.006;6.512;2023-09-19T07:38:55;14.68;;;2.65;;
60026;SDS011;45891;53.006;6.512;2023-09-19T07:41:23;15.05;;;3.00;;
60026;SDS011;45891;53.006;6.512;2023-09-19T07:43:49;15.35;;;3.45;;
60026;SDS011;45891;53.006;6.512;2023-09-19T07:46:15;19.88;;;2.83;;
60026;SDS011;45891;53.006;6.512;2023-09-19T07:48:42;16.27;;;2.65;;
60026;SDS011;45891;53.006;6.512;2023-09-19T07:51:13;16.42;;;2.55;;
60026;SDS011;45891;53.006;6.512;2023-09-19T07:53:41;13.80;;;2.63;;
60026;SDS011;45891;53.006;6.512;2023-09-19T07:56:08;16.45;;;3.30;;
60026;SDS011;45891;53.006;6.512;2023-09-19T07:58:35;14.02;;;2.80;;
60026;SDS011;45891;53.006;6.512;2023-09-19T08:01:06;12.93;;;2.70;;
60026;SDS011;45891;53.006;6.512;2023-09-19T08:03:34;15.68;;;2.90;;
60026;SDS011;45891;53.006;6.512;2023-09-19T08:06:00;15.85;;;2.65;;
60026;SDS011;45891;53.006;6.512;2023-09-19T08:08:27;16.33;;;2.55;;
60026;SDS011;45891;53.006;6.512;2023-09-19T08:10:53;18.73;;;2.90;;
60026;SDS011;45891;53.006;6.512;2023-09-19T08:13:22;14.63;;;2.42;;
60026;SDS011;45891;53.006;6.512;2023-09-19T08:15:49;11.48;;;2.45;;
60026;SDS011;45891;53.006;6.512;2023-09-19T08:18:16;16.58;;;2.75;;
60026;SDS011;45891;53.006;6.512;2023-09-19T08:20:43;13.20;;;2.80;;
60026;SDS011;45891;53.006;6.512;2023-09-19T08:23:14;15.57;;;3.00;;
60026;SDS011;45891;53.006;6.512;2023-09-19T08:25:42;14.77;;;2.95;;
60026;SDS011;45891;53.006;6.512;2023-09-19T08:28:08;15.85;;;3.25;;
60026;SDS011;45891;53.006;6.512;2023-09-19T08:30:37;15.30;;;2.50;;
60026;SDS011;45891;53.006;6.512;2023-09-19T08:33:06;16.20;;;3.27;;
60026;SDS011;45891;53.006;6.512;2023-09-19T08:35:33;15.25;;;2.63;;
60026;SDS011;45891;53.006;6.512;2023-09-19T08:37:59;14.50;;;2.70;;
60026;SDS011;45891;53.006;6.512;2023-09-19T08:40:29;17.85;;;3.58;;
60026;SDS011;45891;53.006;6.512;2023-09-19T08:42:58;17.38;;;2.90;;
60026;SDS011;45891;53.006;6.512;2023-09-19T08:45:26;16.20;;;3.28;;
60026;SDS011;45891;53.006;6.512;2023-09-19T08:48:00;18.92;;;3.28;;
60026;SDS011;45891;53.006;6.512;2023-09-19T08:50:37;16.13;;;3.38;;
60026;SDS011;45891;53.006;6.512;2023-09-19T08:53:14;18.40;;;3.20;;
60026;SDS011;45891;53.006;6.512;2023-09-19T08:55:53;16.52;;;3.33;;
60026;SDS011;45891;53.006;6.512;2023-09-19T08:58:21;16.15;;;3.10;;
60026;SDS011;45891;53.006;6.512;2023-09-19T09:00:57;14.25;;;3.30;;
60026;SDS011;45891;53.006;6.512;2023-09-19T09:03:26;12.82;;;3.13;;
60026;SDS011;45891;53.006;6.512;2023-09-19T09:05:52;17.77;;;3.35;;
60026;SDS011;45891;53.006;6.512;2023-09-19T09:08:19;15.25;;;3.30;;
60026;SDS011;45891;53.006;6.512;2023-09-19T09:10:47;19.80;;;3.38;;
60026;SDS011;45891;53.006;6.512;2023-09-19T09:13:13;16.88;;;3.25;;
60026;SDS011;45891;53.006;6.512;2023-09-19T09:15:41;15.68;;;2.90;;
60026;SDS011;45891;53.006;6.512;2023-09-19T09:18:07;17.17;;;3.23;;
60026;SDS011;45891;53.006;6.512;2023-09-19T09:20:34;14.80;;;2.80;;
60026;SDS011;45891;53.006;6.512;2023-09-19T09:23:01;20.83;;;3.83;;
60026;SDS011;45891;53.006;6.512;2023-09-19T09:28:20;17.00;;;3.35;;
60026;SDS011;45891;53.006;6.512;2023-09-19T09:30:50;12.32;;;2.53;;
60026;SDS011;45891;53.006;6.512;2023-09-19T09:33:17;15.60;;;2.88;;
60026;SDS011;45891;53.006;6.512;2023-09-19T09:35:47;14.35;;;2.67;;
60026;SDS011;45891;53.006;6.512;2023-09-19T09:38:22;16.92;;;3.55;;
60026;SDS011;45891;53.006;6.512;2023-09-19T09:40:58;13.90;;;2.88;;
60026;SDS011;45891;53.006;6.512;2023-09-19T09:43:33;15.60;;;2.65;;
60026;SDS011;45891;53.006;6.512;2023-09-19T09:48:56;13.38;;;2.85;;
60026;SDS011;45891;53.006;6.512;2023-09-19T09:51:58;16.75;;;2.92;;
60026;SDS011;45891;53.006;6.512;2023-09-19T09:54:33;16.63;;;3.17;;
60026;SDS011;45891;53.006;6.512;2023-09-19T09:57:06;16.83;;;3.17;;
60026;SDS011;45891;53.006;6.512;2023-09-19T10:02:27;19.10;;;3.50;;
60026;SDS011;45891;53.006;6.512;2023-09-19T10:05:19;16.30;;;3.25;;
60026;SDS011;45891;53.006;6.512;2023-09-19T10:07:46;15.05;;;3.20;;
60026;SDS011;45891;53.006;6.512;2023-09-19T10:10:31;14.10;;;2.50;;
60026;SDS011;45891;53.006;6.512;2023-09-19T10:13:10;16.05;;;2.80;;
60026;SDS011;45891;53.006;6.512;2023-09-19T10:15:43;15.50;;;3.15;;
60026;SDS011;45891;53.006;6.512;2023-09-19T10:18:19;14.25;;;2.97;;
60026;SDS011;45891;53.006;6.512;2023-09-19T10:20:49;13.60;;;2.75;;
60026;SDS011;45891;53.006;6.512;2023-09-19T10:23:19;18.30;;;3.20;;
60026;SDS011;45891;53.006;6.512;2023-09-19T10:25:49;16.27;;;3.05;;
60026;SDS011;45891;53.006;6.512;2023-09-19T10:28:17;15.02;;;3.15;;
60026;SDS011;45891;53.006;6.512;2023-09-19T10:30:47;15.60;;;2.70;;
60026;SDS011;45891;53.006;6.512;2023-09-19T10:33:22;17.70;;;3.80;;
60026;SDS011;45891;53.006;6.512;2023-09-19T10:35:52;20.10;;;3.30;;
60026;SDS011;45891;53.006;6.512;2023-09-19T10:38:23;16.42;;;4.03;;
60026;SDS011;45891;53.006;6.512;2023-09-19T10:40:51;17.00;;;3.40;;
60026;SDS011;45891;53.006;6.512;2023-09-19T10:43:25;14.10;;;2.72;;
60026;SDS011;45891;53.006;6.512;2023-09-19T10:45:57;16.60;;;3.03;;
60026;SDS011;45891;53.006;6.512;2023-09-19T10:48:29;14.18;;;3.28;;
60026;SDS011;45891;53.006;6.512;2023-09-19T10:53:31;15.90;;;3.30;;
60026;SDS011;45891;53.006;6.512;2023-09-19T10:56:20;15.15;;;3.30;;
60026;SDS011;45891;53.006;6.512;2023-09-19T10:59:06;17.42;;;2.95;;
60026;SDS011;45891;53.006;6.512;2023-09-19T11:01:47;14.25;;;3.00;;
60026;SDS011;45891;53.006;6.512;2023-09-19T11:07:02;14.68;;;3.08;;
60026;SDS011;45891;53.006;6.512;2023-09-19T11:12:12;14.88;;;2.92;;
60026;SDS011;45891;53.006;6.512;2023-09-19T11:15:02;17.55;;;2.95;;
60026;SDS011;45891;53.006;6.512;2023-09-19T11:20:18;14.45;;;2.80;;
60026;SDS011;45891;53.006;6.512;2023-09-19T11:30:40;22.48;;;3.30;;
60026;SDS011;45891;53.006;6.512;2023-09-19T11:33:27;16.93;;;2.87;;
60026;SDS011;45891;53.006;6.512;2023-09-19T11:43:51;14.65;;;3.00;;
60026;SDS011;45891;53.006;6.512;2023-09-19T11:46:21;14.13;;;2.75;;
60026;SDS011;45891;53.006;6.512;2023-09-19T11:48:48;14.15;;;2.90;;
60026;SDS011;45891;53.006;6.512;2023-09-19T11:51:16;14.82;;;2.55;;
60026;SDS011;45891;53.006;6.512;2023-09-19T11:53:55;14.25;;;2.63;;
60026;SDS011;45891;53.006;6.512;2023-09-19T11:56:25;16.20;;;2.85;;
60026;SDS011;45891;53.006;6.512;2023-09-19T11:58:57;13.30;;;2.63;;
60026;SDS011;45891;53.006;6.512;2023-09-19T12:01:25;11.20;;;2.10;;
60026;SDS011;45891;53.006;6.512;2023-09-19T12:03:55;14.23;;;2.70;;
60026;SDS011;45891;53.006;6.512;2023-09-19T12:06:25;14.93;;;2.67;;
60026;SDS011;45891;53.006;6.512;2023-09-19T12:08:52;13.07;;;2.60;;
60026;SDS011;45891;53.006;6.512;2023-09-19T12:11:27;12.85;;;2.70;;
60026;SDS011;45891;53.006;6.512;2023-09-19T12:13:59;13.25;;;2.55;;
60026;SDS011;45891;53.006;6.512;2023-09-19T12:16:26;13.93;;;2.70;;
60026;SDS011;45891;53.006;6.512;2023-09-19T12:18:56;17.45;;;2.75;;
60026;SDS011;45891;53.006;6.512;2023-09-19T12:21:24;12.75;;;2.33;;
60026;SDS011;45891;53.006;6.512;2023-09-19T12:26:30;16.95;;;2.70;;
60026;SDS011;45891;53.006;6.512;2023-09-19T12:29:05;15.75;;;2.67;;
60026;SDS011;45891;53.006;6.512;2023-09-19T12:31:31;17.63;;;2.65;;
60026;SDS011;45891;53.006;6.512;2023-09-19T12:34:02;15.35;;;2.83;;
60026;SDS011;45891;53.006;6.512;2023-09-19T12:36:28;12.00;;;2.20;;
60026;SDS011;45891;53.006;6.512;2023-09-19T12:38:55;16.15;;;2.67;;
60026;SDS011;45891;53.006;6.512;2023-09-19T12:41:25;15.10;;;2.28;;
60026;SDS011;45891;53.006;6.512;2023-09-19T12:43:52;14.07;;;2.28;;
60026;SDS011;45891;53.006;6.512;2023-09-19T12:46:22;13.70;;;2.53;;
60026;SDS011;45891;53.006;6.512;2023-09-19T12:49:14;14.75;;;2.38;;
60026;SDS011;45891;53.006;6.512;2023-09-19T12:51:45;14.00;;;2.05;;
60026;SDS011;45891;53.006;6.512;2023-09-19T12:54:12;13.95;;;2.30;;
60026;SDS011;45891;53.006;6.512;2023-09-19T12:56:45;11.57;;;2.38;;
60026;SDS011;45891;53.006;6.512;2023-09-19T12:59:14;12.25;;;2.25;;
60026;SDS011;45891;53.006;6.512;2023-09-19T13:01:41;10.15;;;2.30;;
60026;SDS011;45891;53.006;6.512;2023-09-19T13:04:15;11.23;;;2.33;;
60026;SDS011;45891;53.006;6.512;2023-09-19T13:06:45;15.13;;;2.63;;
60026;SDS011;45891;53.006;6.512;2023-09-19T13:09:14;13.30;;;2.33;;
60026;SDS011;45891;53.006;6.512;2023-09-19T13:11:46;10.60;;;2.20;;
60026;SDS011;45891;53.006;6.512;2023-09-19T13:14:18;11.38;;;1.98;;
60026;SDS011;45891;53.006;6.512;2023-09-19T13:25:08;10.88;;;1.70;;
60026;SDS011;45891;53.006;6.512;2023-09-19T13:27:48;10.35;;;1.85;;
60026;SDS011;45891;53.006;6.512;2023-09-19T13:30:24;9.35;;;1.65;;
60026;SDS011;45891;53.006;6.512;2023-09-19T13:32:52;13.63;;;2.13;;
60026;SDS011;45891;53.006;6.512;2023-09-19T13:35:29;10.57;;;2.03;;
60026;SDS011;45891;53.006;6.512;2023-09-19T13:37:55;9.38;;;1.50;;
60026;SDS011;45891;53.006;6.512;2023-09-19T13:40:21;11.43;;;1.90;;
60026;SDS011;45891;53.006;6.512;2023-09-19T13:42:47;12.23;;;1.90;;
60026;SDS011;45891;53.006;6.512;2023-09-19T13:45:14;8.55;;;1.50;;
60026;SDS011;45891;53.006;6.512;2023-09-19T13:47:43;13.07;;;1.90;;
60026;SDS011;45891;53.006;6.512;2023-09-19T13:50:09;10.50;;;1.70;;
60026;SDS011;45891;53.006;6.512;2023-09-19T13:52:35;11.68;;;2.17;;
60026;SDS011;45891;53.006;6.512;2023-09-19T13:55:01;9.80;;;1.80;;
60026;SDS011;45891;53.006;6.512;2023-09-19T13:57:27;10.20;;;1.85;;
60026;SDS011;45891;53.006;6.512;2023-09-19T13:59:55;15.00;;;1.67;;
60026;SDS011;45891;53.006;6.512;2023-09-19T14:02:21;10.25;;;1.65;;
60026;SDS011;45891;53.006;6.512;2023-09-19T14:04:51;10.60;;;1.63;;
60026;SDS011;45891;53.006;6.512;2023-09-19T14:07:17;10.52;;;1.45;;
60026;SDS011;45891;53.006;6.512;2023-09-19T14:09:45;13.05;;;2.00;;
60026;SDS011;45891;53.006;6.512;2023-09-19T14:12:12;9.38;;;1.95;;
60026;SDS011;45891;53.006;6.512;2023-09-19T14:14:38;11.48;;;1.77;;
60026;SDS011;45891;53.006;6.512;2023-09-19T14:17:04;11.18;;;1.80;;
60026;SDS011;45891;53.006;6.512;2023-09-19T14:19:32;11.27;;;2.00;;
60026;SDS011;45891;53.006;6.512;2023-09-19T14:21:58;10.13;;;1.70;;
60026;SDS011;45891;53.006;6.512;2023-09-19T14:24:27;10.70;;;1.80;;
60026;SDS011;45891;53.006;6.512;2023-09-19T14:26:53;9.00;;;1.70;;
60026;SDS011;45891;53.006;6.512;2023-09-19T14:29:19;10.93;;;1.92;;
60026;SDS011;45891;53.006;6.512;2023-09-19T14:31:45;9.55;;;1.67;;
60026;SDS011;45891;53.006;6.512;2023-09-19T14:34:12;10.85;;;1.45;;
60026;SDS011;45891;53.006;6.512;2023-09-19T14:36:38;8.35;;;1.50;;
60026;SDS011;45891;53.006;6.512;2023-09-19T14:39:04;10.40;;;1.50;;
60026;SDS011;45891;53.006;6.512;2023-09-19T14:41:31;8.70;;;1.60;;
60026;SDS011;45891;53.006;6.512;2023-09-19T14:43:57;7.38;;;1.40;;
60026;SDS011;45891;53.006;6.512;2023-09-19T14:46:23;10.85;;;1.50;;
60026;SDS011;45891;53.006;6.512;2023-09-19T14:48:52;15.68;;;1.45;;
60026;SDS011;45891;53.006;6.512;2023-09-19T14:51:19;13.35;;;1.92;;
60026;SDS011;45891;53.006;6.512;2023-09-19T14:53:45;8.68;;;1.73;;
60026;SDS011;45891;53.006;6.512;2023-09-19T14:56:12;10.10;;;1.65;;
60026;SDS011;45891;53.006;6.512;2023-09-19T14:58:44;11.43;;;1.50;;
60026;SDS011;45891;53.006;6.512;2023-09-19T15:01:10;7.55;;;1.40;;
60026;SDS011;45891;53.006;6.512;2023-09-19T15:03:38;7.55;;;1.42;;
60026;SDS011;45891;53.006;6.512;2023-09-19T15:06:08;8.87;;;1.67;;
60026;SDS011;45891;53.006;6.512;2023-09-19T15:08:40;10.52;;;1.80;;
60026;SDS011;45891;53.006;6.512;2023-09-19T15:11:11;10.52;;;1.45;;
60026;SDS011;45891;53.006;6.512;2023-09-19T15:13:38;7.50;;;1.60;;
60026;SDS011;45891;53.006;6.512;2023-09-19T15:16:05;7.65;;;1.42;;
60026;SDS011;45891;53.006;6.512;2023-09-19T15:18:38;8.23;;;1.42;;
60026;SDS011;45891;53.006;6.512;2023-09-19T15:21:08;10.20;;;1.60;;
60026;SDS011;45891;53.006;6.512;2023-09-19T15:23:38;11.50;;;1.50;;
60026;SDS011;45891;53.006;6.512;2023-09-19T15:26:10;11.05;;;1.75;;
60026;SDS011;45891;53.006;6.512;2023-09-19T15:28:37;7.90;;;1.55;;
60026;SDS011;45891;53.006;6.512;2023-09-19T15:31:08;10.73;;;1.88;;
60026;SDS011;45891;53.006;6.512;2023-09-19T15:33:36;8.88;;;1.65;;
60026;SDS011;45891;53.006;6.512;2023-09-19T15:36:04;8.10;;;1.60;;
60026;SDS011;45891;53.006;6.512;2023-09-19T15:38:31;8.77;;;1.48;;
60026;SDS011;45891;53.006;6.512;2023-09-19T15:41:13;12.18;;;1.77;;
60026;SDS011;45891;53.006;6.512;2023-09-19T15:43:39;10.23;;;1.83;;
60026;SDS011;45891;53.006;6.512;2023-09-19T15:46:05;8.80;;;1.60;;
60026;SDS011;45891;53.006;6.512;2023-09-19T15:48:31;9.27;;;1.80;;